Unlu-5 — TCON5 — position and weather

sailwx.info

Track history (hours):
 
Tides and Currents Weather Stations Pressure Air Temp Water Temp Dewpoint Dewpoint Depression Visibility Wind Speed Wind Dir Waves Ship Positions

Unlu-5

Last reported at 2017-Jan-03 12:27 UTC. Time now 2017-Jan-20 07:57 UTC.
Position N 38°27' E 012°47'.
Warning: this ship's position is 16 days out of date.

Length 99 m; draft 6 m.

Type: Ship. MMSI: 271000854.

Date/timePositionNaut miles runAvg speedWind from/ knotsBaromVisibWave heightAir tempDewpointWater temp
2017-Jan-03 12:27N 38°27' E 012°47'5 6.0
2017-Jan-03 11:33N 38°25' E 012°53'7 7.0
2017-Jan-03 10:34N 38°23' E 013°02'7 7.3
2017-Jan-03 09:34N 38°22' E 013°11'7 7.2
2017-Jan-03 08:34N 38°21' E 013°20'8 7.8
2017-Jan-03 07:34N 38°20' E 013°30'8 7.8
2017-Jan-03 06:34N 38°21' E 013°40'7 7.4
2017-Jan-03 05:33N 38°21' E 013°49'7 7.0
2017-Jan-03 04:33N 38°20' E 013°58'30 7.5
2017-Jan-03 00:33N 38°19' E 014°36'8 7.8
2017-Jan-02 23:34N 38°20' E 014°46'8 7.5
2017-Jan-02 22:33N 38°20' E 014°56'7 7.4
2017-Jan-02 21:34N 38°20' E 015°05'7 7.2
2017-Jan-02 20:33N 38°20' E 015°14'7 7.4
2017-Jan-02 19:33N 38°20' E 015°24'8 7.6
2017-Jan-02 18:33N 38°20' E 015°33'7 7.3
2017-Jan-02 17:33N 38°17' E 015°42'7 7.3
2017-Jan-02 16:33N 38°10' E 015°37'7 6.9
2017-Jan-02 15:33N 38°03' E 015°36'7 6.7
2017-Jan-02 14:34N 37°57' E 015°39'7 7.3
2017-Jan-02 13:34N 37°54' E 015°47'  
Track history (hours):
 
Tides and Currents Weather Stations Pressure Air Temp Water Temp Dewpoint Dewpoint Depression Visibility Wind Speed Wind Dir Waves Ship Positions

Unlu-5

Last reported at 2017-Jan-03 12:27 UTC. Time now 2017-Jan-20 07:57 UTC.
Position N 38°27' E 012°47'.
Warning: this ship's position is 16 days out of date.

Length 99 m; draft 6 m.

Type: Ship. MMSI: 271000854.

Date/timePositionNaut miles runAvg speedWind from/ knotsBaromVisibWave heightAir tempDewpointWater temp
2017-Jan-03 12:27N 38°27' E 012°47'5 6.0
2017-Jan-03 11:33N 38°25' E 012°53'7 7.0
2017-Jan-03 10:34N 38°23' E 013°02'7 7.3
2017-Jan-03 09:34N 38°22' E 013°11'7 7.2
2017-Jan-03 08:34N 38°21' E 013°20'8 7.8
2017-Jan-03 07:34N 38°20' E 013°30'8 7.8
2017-Jan-03 06:34N 38°21' E 013°40'7 7.4
2017-Jan-03 05:33N 38°21' E 013°49'7 7.0
2017-Jan-03 04:33N 38°20' E 013°58'30 7.5
2017-Jan-03 00:33N 38°19' E 014°36'8 7.8
2017-Jan-02 23:34N 38°20' E 014°46'8 7.5
2017-Jan-02 22:33N 38°20' E 014°56'7 7.4
2017-Jan-02 21:34N 38°20' E 015°05'7 7.2
2017-Jan-02 20:33N 38°20' E 015°14'7 7.4
2017-Jan-02 19:33N 38°20' E 015°24'8 7.6
2017-Jan-02 18:33N 38°20' E 015°33'7 7.3
2017-Jan-02 17:33N 38°17' E 015°42'7 7.3
2017-Jan-02 16:33N 38°10' E 015°37'7 6.9
2017-Jan-02 15:33N 38°03' E 015°36'7 6.7
2017-Jan-02 14:34N 37°57' E 015°39'7 7.3
2017-Jan-02 13:34N 37°54' E 015°47'  

Dump ship's entire track history